logo
Rechercher aéroport 
image banner adimage banner adimage banner ad
image banner ad

EHBID - Biddinghuizen

Situé à , Netherlands

ICAO - , IATA -

Données fournies par Airmate  

Information générale

Coordonnées: N52°25'45" E5°40'27"
Élévation : -13 feet MSL.
 
Voir autres Aéroports à Flevoland

Données opérationnelles

Special qualification required
Heure actuelle UTC:
Heure actuelle locale:
Météo à : EHLE - Lelystad/Lelystad ( 11 km )
METAR: EHLE 311655Z AUTO 36012KT 330V040 9999 NCD 19/13 Q1024 NOSIG
TAF: TAF EHLE 311105Z 3112/0118 02012KT CAVOK BECMG 3121/3124 BKN012 TEMPO 3123/0104 BKN008 BECMG 0105/0108 BKN018
Voir NOTAMs / SUP AIP / TFR affectant cet aéroport [VIEW]
Fréquences de communication: [VIEW]

Pistes:

Identifiant RWYQFULongueur (ft)Largeur (ft)SurfaceLDA (ft)
0538°3937164GRASS
23218°3937164GRASS

Coordonnées de l'aéroport

Adresse: Netherlands

Vue satellite de EHBID